Lexington Weather

Lexington, Massachusetts, USA

41°F
4/22/2024 8:08am 
  • Lexington Conditions: Clear
  • Temperature: 40.6°F / 4.8°CWarmer 3.2°F than last hour.
  • Dew Point: 27.9°FDecreased 1.2°Fsince last hour.
  • Relative Humidity: 60%Decreased 12.0% since last hour.
  • Wind: Calm, 10-min avg: Calm, gust: 4 mph
  • Barometer: 29.95 in Steady
  • Visibility: 10 miles
  • Rain Today: 0.00 in
  •   

Nearby Reports - Official Weather Stations - Current Conditions

Data from the National Weather Service

KBED - Bedford, MA


Distance from station: WNW 4mi, 6km

Updated Mon Apr 22, 2024 7:51am EDT

Clear

Clear

Wind from WNW

Wind:

WNW 9 mph, 15 km/h

Temperature: 43°F (6°C)

Wind Chill: 38°F (3°C)

Dew Point: 27°F (-3°C)

Humidity: 53%

Barometer: 29.99 in (1015.6 hPa)

Clouds: Clear

Visibility: 10 miles (16 km)


2024/04/22 11:51 KBED 221151Z 30008KT 10SM CLR 06/M03 A2999 RMK AO2 SLP169 T00561028 10056 20006 51028

KBOS - Boston, MA


Distance from station: ESE 12mi, 20km

Updated Mon Apr 22, 2024 7:54am EDT

Few Clouds

Few Clouds

Wind from NW

Wind:

NW 16 mph, 26 km/h,
Gust: 23 mph, 37 km/h

Temperature: 45°F (7°C)

Wind Chill: 38°F (3°C)

Dew Point: 19°F (-7°C)

Humidity: 37%

Barometer: 30.00 in (1015.9 hPa)

Clouds: Few Clouds

Visibility: 10 miles (16 km)

Cloud details: Few Clouds 25000 ft


2024/04/22 11:54 KBOS 221154Z 31014G20KT 10SM FEW250 07/M07 A3000 RMK AO2 SLP157 T00671067 10067 20050 51025

KOWD - Norwood, MA


Distance from station: SSE 18mi, 29km

Updated Mon Apr 22, 2024 7:53am EDT

Clear

Clear

Wind from NNW

Wind:

NNW 10 mph, 17 km/h

Temperature: 45°F (7°C)

Wind Chill: 40°F (4°C)

Dew Point: 27°F (-3°C)

Humidity: 49%

Barometer: 30.00 in (1015.9 hPa)

Clouds: Clear

Visibility: 10 miles (16 km)


2024/04/22 11:53 KOWD 221153Z 33009KT 10SM CLR 07/M03 A3000 RMK AO2 SLP158 T00721028 10072 21006 51023

KBVY - Beverly, MA


Distance from station: ENE 19mi, 31km

Updated Mon Apr 22, 2024 7:53am EDT

Clear

Clear

Wind from NW

Wind:

NW 16 mph, 26 km/h,
Gust: 23 mph, 37 km/h

Temperature: 43°F (6°C)

Wind Chill: 35°F (2°C)

Dew Point: 21°F (-6°C)

Humidity: 42%

Barometer: 29.97 in (1014.9 hPa)

Clouds: Clear

Visibility: 10 miles (16 km)


2024/04/22 11:53 KBVY 221153Z 32014G20KT 10SM CLR 06/M06 A2997 RMK AO2 SLP146 T00561056 10056 20022 51025

KLWM - Lawrence, MA


Distance from station: NNE 20mi, 32km

Updated Mon Apr 22, 2024 7:54am EDT

Clear

Clear

Wind from NW

Wind:

NW 9 mph, 15 km/h

Temperature: 41°F (5°C)

Wind Chill: 35°F (2°C)

Dew Point: 21°F (-6°C)

Humidity: 45%

Barometer: 30.00 in (1015.9 hPa)

Clouds: Clear

Visibility: 10 miles (16 km)


2024/04/22 11:54 KLWM 221154Z 32008KT 10SM CLR 05/M06 A3000 RMK AO2 SLP160 T00501056 10050 20006 51027

KFIT - Fitchburg, MA


Distance from station: WNW 27mi, 44km

Updated Mon Apr 22, 2024 7:52am EDT

Clear

Clear

Wind from NW

Wind:

NW 12 mph, 19 km/h,
Gust: 23 mph, 37 km/h

Temperature: 43°F (6°C)

Wind Chill: 37°F (3°C)

Dew Point: 21°F (-6°C)

Humidity: 42%

Barometer: 30.01 in (1016.3 hPa)

Clouds: Clear

Visibility: 10 miles (16 km)


2024/04/22 11:52 KFIT 221152Z AUTO 32010G20KT 10SM CLR 06/M06 A3001 RMK AO2 SLP164 T00561061 10056 21017 51029

KORH - Worcester, MA


Distance from station: WSW 34mi, 55km

Updated Mon Apr 22, 2024 7:54am EDT

Clear

Clear

Wind from NW

Wind:

NW 13 mph, 20 km/h,
Gust: 20 mph, 31 km/h

Temperature: 39°F (4°C)

Wind Chill: 31°F (-1°C)

Dew Point: 25°F (-4°C)

Humidity: 56%

Barometer: 29.97 in (1014.9 hPa)

Clouds: Clear

Visibility: 10 miles (16 km)


2024/04/22 11:54 KORH 221154Z 31011G17KT 10SM CLR 04/M04 A2997 RMK AO2 SLP157 T00441044 10044 20000 51023

KORE - Orange, Massachusetts, USA


Distance from station: W 54mi, 87km

Updated Mon Apr 22, 2024 7:52am EDT

Clear

Clear

Wind from NNW

Wind:

NNW 9 mph, 15 km/h

Temperature: 39°F (4°C)

Wind Chill: 33°F (1°C)

Dew Point: 23°F (-5°C)

Humidity: 52%

Barometer: 30.01 in (1016.3 hPa)

Clouds: Clear

Visibility: 10 miles (16 km)


2024/04/22 11:52 KORE 221152Z AUTO 33008KT 10SM CLR 04/M05 A3001 RMK AO2 SLP168 T00441050 10044 21028 53027

KGHG - Marshfield, MA


Distance from station: SE 38mi, 60km

Updated Mon Apr 22, 2024 7:55am EDT

Clear

Clear

Wind from varies

Wind:

varies 7 mph, 11 km/h,
Gust: 13 mph, 20 km/h

Temperature: 45°F (7°C)

Wind Chill: 41°F (5°C)

Dew Point: 28°F (-2°C)

Humidity: 53%

Barometer: 29.98 in (1015.2 hPa)

Clouds: Clear

Visibility: 10 miles (16 km)


2024/04/22 11:55 KGHG 221155Z AUTO VRB06G11KT 10SM CLR 07/M02 A2998 RMK AO2

KSFZ - Pawtucket, RI


Distance from station: SSW 39mi, 62km

Updated Mon Apr 22, 2024 7:56am EDT

Clear

Clear

Wind from NW

Wind:

NW 9 mph, 15 km/h

Temperature: 43°F (6°C)

Wind Chill: 38°F (3°C)

Dew Point: 28°F (-2°C)

Humidity: 57%

Barometer: 29.99 in (1015.6 hPa)

Clouds: Clear

Visibility: 10 miles (16 km)


2024/04/22 11:56 KSFZ 221156Z AUTO 32008KT 10SM CLR 06/M02 A2999 RMK AO2 SLP158 T00561022 10056 21006 51019 $

KTAN - Taunton, MA


Distance from station: SSE 40mi, 65km

Updated Mon Apr 22, 2024 7:52am EDT

Clear

Clear

Wind from NW

Wind:

NW 6 mph, 9 km/h

Temperature: 46°F (8°C)

Wind Chill: 43°F (6°C)

Dew Point: 28°F (-2°C)

Humidity: 50%

Barometer: 29.99 in (1015.6 hPa)

Clouds: Clear

Visibility: 10 miles (16 km)


2024/04/22 11:52 KTAN 221152Z AUTO 31005KT 10SM CLR 08/M02 A2999 RMK AO2 SLP155 T00781017 10078 21006 51019

KPYM - Plymouth, MA


Distance from station: SE 44mi, 72km

Updated Mon Apr 22, 2024 7:52am EDT

Clear

Clear

Wind from NW

Wind:

NW 9 mph, 15 km/h

Temperature: 45°F (7°C)

Wind Chill: 40°F (4°C)

Dew Point: 28°F (-2°C)

Humidity: 53%

Barometer: 29.97 in (1014.9 hPa)

Clouds: Clear

Visibility: 10 miles (16 km)


2024/04/22 11:52 KPYM 221152Z AUTO 31008KT 10SM CLR 07/M02 A2997 RMK AO2 SLP152 T00671017 10067 20017 51018

KPVD - Providence/Green, RI


Distance from station: S 51mi, 82km

Updated Mon Apr 22, 2024 7:51am EDT

Few Clouds

Few Clouds

Wind from WNW

Wind:

WNW 8 mph, 13 km/h

Temperature: 45°F (7°C)

Wind Chill: 41°F (5°C)

Dew Point: 28°F (-2°C)

Humidity: 53%

Barometer: 30.00 in (1015.9 hPa)

Clouds: Few Clouds

Visibility: 10 miles (16 km)

Cloud details: Few Clouds 25000 ft


2024/04/22 11:51 KPVD 221151Z 30007KT 10SM FEW250 07/M02 A3000 RMK AO2 SLP159 T00721017 10072 20017 51017 $

KEWB - New Bedford, MA


Distance from station: SSE 54mi, 87km

Updated Mon Apr 22, 2024 7:53am EDT

Clear

Clear

Wind from WNW

Wind:

WNW 10 mph, 17 km/h

Temperature: 45°F (7°C)

Wind Chill: 40°F (4°C)

Dew Point: 28°F (-2°C)

Humidity: 53%

Barometer: 29.99 in (1015.6 hPa)

Clouds: Clear

Visibility: 10 miles (16 km)


2024/04/22 11:53 KEWB 221153Z 29009KT 10SM CLR 07/M02 A2999 RMK AO2 SLP154 T00721022 10072 20022 53018

KPVC - Provincetown, Massachusetts, USA


Distance from station: ESE 58mi, 94km

Updated Mon Apr 22, 2024 7:56am EDT

Clear

Clear

Wind from NW

Wind:

NW 15 mph, 24 km/h

Temperature: 45°F (7°C)

Wind Chill: 38°F (3°C)

Dew Point: 36°F (2°C)

Humidity: 71%

Barometer: 29.98 in (1015.2 hPa)

Clouds: Clear

Visibility: 10 miles (16 km)


2024/04/22 11:56 KPVC 221156Z AUTO 31013KT 10SM CLR 07/02 A2998 RMK AO2 SLP150 T00670017 10067 20050 51018

KUUU - Newport, Rhode Island, USA


Distance from station: S 63mi, 101km

Updated Mon Apr 22, 2024 7:53am EDT

Clear

Clear

Wind from NW

Wind:

NW 8 mph, 13 km/h

Temperature: 43°F (6°C)

Wind Chill: 38°F (3°C)

Dew Point: 30°F (-1°C)

Humidity: 61%

Barometer: 29.99 in (1015.6 hPa)

Clouds: Clear

Visibility: 10 miles (16 km)


2024/04/22 11:53 KUUU 221153Z AUTO 31007KT 10SM CLR 06/M01 A2999 RMK AO2 SLP155 T00611011 10061 20033 51016

KFMH - Falmouth/Otis Ab, Massachusetts, USA


Distance from station: SE 67mi, 108km

Updated Mon Apr 22, 2024 7:56am EDT

Clear

Clear

Wind from NW

Wind:

NW 9 mph, 15 km/h,
Gust: 16 mph, 26 km/h

Temperature: 43°F (6°C)

Wind Chill: 38°F (3°C)

Dew Point: 28°F (-2°C)

Humidity: 57%

Barometer: 29.98 in (1015.2 hPa)

Clouds: Clear

Visibility: 10 miles (16 km)


2024/04/22 11:56 KFMH 221156Z 32008G14KT 10SM CLR 06/M02 A2998

KHYA - Hyannis, Massachusetts, USA


Distance from station: SE 73mi, 118km

Updated Mon Apr 22, 2024 7:56am EDT

Clear

Clear

Wind from NW

Wind:

NW 12 mph, 19 km/h,
Gust: 22 mph, 35 km/h

Temperature: 45°F (7°C)

Wind Chill: 39°F (4°C)

Dew Point: 27°F (-3°C)

Humidity: 49%

Barometer: 29.95 in (1014.2 hPa)

Clouds: Clear

Visibility: 10 miles (16 km)


2024/04/22 11:56 KHYA 221156Z 31010G19KT 10SM CLR 07/M03 A2995 RMK AO2 SLP144 T00671028 10067 20033 51017

KMVY - Marthas Vineyard, Massachusetts, USA


Distance from station: SSE 79mi, 127km

Updated Mon Apr 22, 2024 7:53am EDT

Clear

Clear

Wind from NW

Wind:

NW 16 mph, 26 km/h,
Gust: 23 mph, 37 km/h

Temperature: 46°F (8°C)

Wind Chill: 39°F (4°C)

Dew Point: 32°F (0°C)

Humidity: 57%

Barometer: 29.98 in (1015.2 hPa)

Clouds: Clear

Visibility: 10 miles (16 km)


2024/04/22 11:53 KMVY 221153Z 32014G20KT 10SM CLR 08/00 A2998 RMK AO2 SLP151 T00830000 10083 20044 53016

KWST - Westerly, Rhode Island, USA


Distance from station: SSW 81mi, 130km

Updated Mon Apr 22, 2024 7:53am EDT

Clear

Clear

Wind from NNW

Wind:

NNW 6 mph, 9 km/h

Temperature: 45°F (7°C)

Wind Chill: 42°F (6°C)

Dew Point: 30°F (-1°C)

Humidity: 57%

Barometer: 30.01 in (1016.3 hPa)

Clouds: Clear

Visibility: 10 miles (16 km)


2024/04/22 11:53 KWST 221153Z AUTO 34005KT 10SM CLR 07/M01 A3001 RMK AO2 SLP162 T00671011 10067 20006 53014 $

KCQX - Chatham, Massachusetts, USA


Distance from station: SE 82mi, 133km

Updated Mon Apr 22, 2024 7:52am EDT

Clear

Clear

Wind from NW

Wind:

NW 9 mph, 15 km/h

Temperature: 46°F (8°C)

Wind Chill: 41°F (5°C)

Dew Point: 30°F (-1°C)

Humidity: 53%

Barometer: 29.97 in (1014.9 hPa)

Clouds: Clear

Visibility: 10 miles (16 km)


2024/04/22 11:52 KCQX 221152Z AUTO 31008KT 280V360 10SM CLR 08/M01 A2997 RMK AO2 SLP149 60000 T00781006 10078 20044 51018 PWINO $

KCEF - Chicopee/Westover, Massachusetts, USA


Distance from station: WSW 67mi, 108km

Updated Mon Apr 22, 2024 6:55am EDT

Clear

Clear

Wind from calm

Wind:

Calm

Temperature: 34°F (1°C)

Dew Point: 28°F (-2°C)

Humidity: 81%

Barometer: 29.97 in (1014.9 hPa)

Clouds: Clear

Visibility: 10 miles (16 km)


2024/04/22 10:55 KCEF 221055Z AUTO 00000KT 10SM CLR 01/M02 A2997 RMK AO2 SLP156 T00131018

KBAF - Westfield, Massachusetts, USA


Distance from station: WSW 78mi, 125km

Updated Mon Apr 22, 2024 7:53am EDT

Clear

Clear

Wind from NNW

Wind:

NNW 13 mph, 20 km/h,
Gust: 18 mph, 30 km/h

Temperature: 45°F (7°C)

Wind Chill: 39°F (4°C)

Dew Point: 27°F (-3°C)

Humidity: 49%

Barometer: 30.01 in (1016.3 hPa)

Clouds: Clear

Visibility: 10 miles (16 km)


2024/04/22 11:53 KBAF 221153Z 34011G16KT 10SM CLR 07/M03 A3001 RMK AO2 SLP167 T00671028 10067 20017 53022

KASH - Nashua/Boire Fld, New Hampshire


Distance from station: NNW 28mi, 44km

Updated Mon Apr 22, 2024 7:56am EDT

Clear

Clear

Wind from NW

Wind:

NW 12 mph, 19 km/h

Temperature: 41°F (5°C)

Wind Chill: 34°F (1°C)

Dew Point: 19°F (-7°C)

Humidity: 42%

Barometer: 30.00 in (1015.9 hPa)

Clouds: Clear

Visibility: 10 miles (16 km)


2024/04/22 11:56 KASH 221156Z 32010KT 10SM CLR 05/M07 A3000 RMK AO2 SLP166 T00501072 10050 20000 51031

KMHT - Manchester, New Hampshire


Distance from station: NNW 35mi, 57km

Updated Mon Apr 22, 2024 7:53am EDT

Clear

Clear

Wind from NW

Wind:

NW 15 mph, 24 km/h,
Gust: 25 mph, 41 km/h

Temperature: 41°F (5°C)

Wind Chill: 33°F (1°C)

Dew Point: 16°F (-9°C)

Humidity: 36%

Barometer: 29.98 in (1015.2 hPa)

Clouds: Clear

Visibility: 10 miles (16 km)


2024/04/22 11:53 KMHT 221153Z 32013G22KT 10SM CLR 05/M09 A2998 RMK AO2 SLP168 T00501094 10050 21006 53030

KAFN - Jaffrey, New Hampshire


Distance from station: WNW 46mi, 74km

Updated Mon Apr 22, 2024 7:52am EDT

Clear

Clear

Wind from NW

Wind:

NW 6 mph, 9 km/h

Temperature: 39°F (4°C)

Wind Chill: 35°F (2°C)

Dew Point: 16°F (-9°C)

Humidity: 39%

Barometer: 29.98 in (1015.2 hPa)

Clouds: Clear

Visibility: 10 miles (16 km)


2024/04/22 11:52 KAFN 221152Z AUTO 32005KT 10SM CLR 04/M09 A2998 RMK AO2 SLP164 T00391089 10039 21006 53027

KPSM - Portsmouth/Pease, New Hampshire


Distance from station: NNE 48mi, 78km

Updated Mon Apr 22, 2024 6:55am EDT

Clear

Clear

Wind from WNW

Wind:

WNW 7 mph, 11 km/h

Temperature: 41°F (5°C)

Wind Chill: 36°F (2°C)

Dew Point: 25°F (-4°C)

Humidity: 53%

Barometer: 29.94 in (1013.9 hPa)

Clouds: Clear

Visibility: 10 miles (16 km)


2024/04/22 10:55 KPSM 221055Z 30006KT 10SM CLR 05/M04 A2994 RMK AO2A SLP142 T00461039

KCON - Concord, New Hampshire


Distance from station: NNW 54mi, 87km

Updated Mon Apr 22, 2024 7:51am EDT

Clear

Clear

Wind from NW

Wind:

NW 17 mph, 28 km/h,
Gust: 32 mph, 52 km/h

Temperature: 39°F (4°C)

Wind Chill: 30°F (-1°C)

Dew Point: 16°F (-9°C)

Humidity: 39%

Barometer: 29.99 in (1015.6 hPa)

Clouds: Clear

Visibility: 10 miles (16 km)


2024/04/22 11:51 KCON 221151Z AUTO 31015G28KT 10SM CLR 04/M09 A2999 RMK AO2 PK WND 30028/1148 SLP159 T00391094 10044 21022 53027

KEEN - Keene/Dillant, New Hampshire, USA


Distance from station: WNW 60mi, 97km

Updated Mon Apr 22, 2024 7:56am EDT

Clear

Clear

Wind from NNW

Wind:

NNW 7 mph, 11 km/h

Temperature: 39°F (4°C)

Wind Chill: 34°F (1°C)

Dew Point: 21°F (-6°C)

Humidity: 48%

Barometer: 30.01 in (1016.3 hPa)

Clouds: Clear

Visibility: 10 miles (16 km)


2024/04/22 11:56 KEEN 221156Z AUTO 33006KT 10SM CLR 04/M06 A3001 RMK AO2 SLP171 T00391061 10039 21033 51026 $

KDAW - Rochester, New Hampshire, USA


Distance from station: NNE 61mi, 97km

Updated Mon Apr 22, 2024 7:51am EDT

Clear

Clear

Wind from WNW

Wind:

WNW 16 mph, 26 km/h,
Gust: 23 mph, 37 km/h

Temperature: 43°F (6°C)

Wind Chill: 35°F (2°C)

Dew Point: 19°F (-7°C)

Humidity: 39%

Barometer: 29.96 in (1014.6 hPa)

Clouds: Clear

Visibility: 10 miles (16 km)


2024/04/22 11:51 KDAW 221151Z AUTO 30014G20KT 10SM CLR 06/M07 A2996 RMK AO2 PK WND 33029/1109 SLP142 T00561067 10056 20017 53026

KLCI - Laconia Muni, New Hampshire, USA


Distance from station: N 78mi, 126km

Updated Mon Apr 22, 2024 7:56am EDT

Clear

Clear

Wind from NW

Wind:

NW 14 mph, 22 km/h,
Gust: 23 mph, 37 km/h

Temperature: 36°F (2°C)

Wind Chill: 27°F (-3°C)

Dew Point: 16°F (-9°C)

Humidity: 44%

Barometer: 29.97 in (1014.9 hPa)

Clouds: Clear

Visibility: 10 miles (16 km)


2024/04/22 11:56 KLCI 221156Z AUTO 31012G20KT 10SM CLR 02/M09 A2997 RMK AO2 SLP154 T00221089 10033 20017 51020 FZRANO

KMWN - Mount Washington, New Hampshire


Distance from station: N 126mi, 203km

Updated Mon Apr 22, 2024 6:48am EDT (NOT Current)

Partial fog, Mostly cloudy

Partial fog, Mostly cloudy

Wind from WNW

Wind:

WNW 63 mph, 102 km/h,
Gust: 68 mph, 109 km/h

Temperature: 3°F (-16°C)

Wind Chill: -29°F (-34°C)

Dew Point: -2°F (-19°C)

Humidity: 78%

Summary: Partial Fog

Clouds: Mostly cloudy

Visibility: 100 miles (160 km)

Cloud details: Few Clouds 0 ft
Mostly cloudy 500 ft


2024/04/22 10:48 KMWN 221048Z COR 30055G59KT 100SM PRFG FEW/// FEW000 BKN005 M16/M19 RMK VIS S-SW 1/16 SNSHE20 PRFG FEW TPS LWR FEW060 BLSN BLO STA ALQDS